Weather observations for the past three days for
Moorhead Municipal Airport
Imperial (Metric)
Date Time (cdt) Wind (mph) Vis. (mi.) Weather Sky Cond. Temperature (ºF) Relative Humidity Wind Chill (°F) Heat Index (°F) Pressure Precipitation (in)
Air Dwpt 6 hour altimeter (in) sea level (mb) 1 hr 3 hr 6 hr
Max. Min.
07 11:35 NW 10 G 21 10.00 Partly Cloudy SCT075 51.8 28.4 41% 29.86 0.0
07 11:15 SW 10 G 17 10.00 Partly Cloudy SCT075 53.6 30.2 41% 29.86 0.0
07 10:55 W 10 10.00 Fair CLR 51.8 30.2 44% 29.87 0.0
07 10:35 NW 12 G 17 10.00 Fair CLR 50 30.2 47% 46 29.87 0.0
07 10:15 W 9 G 16 10.00 Fair CLR 48.2 30.2 50% 45 29.88 0.0
07 09:55 W 9 10.00 Fair CLR 46.4 32 57% 42 29.88 0.0
07 09:35 SW 7 10.00 Partly Cloudy SCT075 42.8 30.2 61% 39 29.89 0.0
07 09:15 SW 7 10.00 Mostly Cloudy BKN075 39.2 28.4 65% 35 29.89 0.0
07 08:55 SW 6 10.00 Mostly Cloudy BKN075 39.2 28.4 65% 36 29.9 0.0
07 08:35 SW 6 10.00 Overcast OVC075 37.4 26.6 65% 33 29.89 0.0
07 08:15 SW 6 10.00 Mostly Cloudy BKN075 37.4 26.6 65% 33 29.89 0.0
07 07:55 SW 5 10.00 Partly Cloudy SCT075 33.8 26.6 75% 30 29.89 0.0
07 07:35 S 3 10.00 Fair CLR 30.2 24.8 80% 29.89 0.0
07 07:15 S 5 10.00 Fair CLR 28.4 24.8 86% 24 29.89 0.0
07 06:55 S 5 10.00 Fair CLR 26.6 21.2 80% 22 29.89 0.0
07 06:35 S 5 10.00 Fair CLR 26.6 21.2 80% 22 29.88 0.0
07 06:15 S 5 10.00 Fair CLR 24.8 21.2 86% 20 29.88 0.0
07 05:55 S 6 10.00 Fair CLR 26.6 21.2 80% 21 29.88 0.0
07 05:35 S 7 10.00 Fair CLR 26.6 21.2 80% 20 29.88 0.0
07 05:15 S 7 10.00 Fair CLR 26.6 21.2 80% 20 29.88 0.0
07 04:55 S 7 10.00 Fair CLR 26.6 21.2 80% 20 29.89 0.0
07 04:35 S 7 10.00 Fair CLR 26.6 21.2 80% 20 29.89 0.0
07 04:15 S 7 10.00 Fair CLR 26.6 21.2 80% 20 29.89 0.0
07 03:55 S 7 10.00 Fair CLR 26.6 21.2 80% 20 29.89 0.0
07 03:35 S 6 10.00 Fair CLR 28.4 21.2 74% 23 29.89 0.0
07 03:15 S 6 10.00 Fair CLR 26.6 21.2 80% 21 29.89 0.0
07 02:55 S 7 10.00 Fair CLR 26.6 21.2 80% 20 29.89 0.0
07 02:35 S 6 10.00 Fair CLR 26.6 21.2 80% 21 29.9 0.0
07 02:15 S 6 10.00 Fair CLR 28.4 21.2 74% 23 29.9 0.0
07 01:55 S 6 10.00 Fair CLR 28.4 21.2 74% 23 29.9 0.0
07 01:35 S 7 10.00 Fair CLR 30.2 21.2 69% 24 29.9 0.0
07 01:15 S 5 10.00 Fair CLR 30.2 21.2 69% 26 29.91 0.0
07 00:55 S 3 10.00 Fair CLR 32 21.2 64% 29.91 0.0
07 00:35 S 6 10.00 Partly Cloudy SCT100 35.6 21.2 56% 31 29.91 0.0
07 00:15 S 5 10.00 Mostly Cloudy BKN100 33.8 21.2 60% 30 29.92 0.0
06 23:55 S 6 10.00 Overcast OVC090 35.6 21.2 56% 31 29.92 0.0
06 23:35 S 5 10.00 Overcast OVC090 35.6 23 60% 32 29.92 0.0
06 23:15 S 6 10.00 Overcast OVC090 37.4 23 56% 33 29.93 0.0
06 22:55 S 7 10.00 Overcast OVC090 37.4 23 56% 33 29.94 0.0
06 22:35 S 5 10.00 Mostly Cloudy BKN090 37.4 23 56% 34 29.94 0.0
06 22:15 S 6 10.00 Partly Cloudy SCT090 37.4 23 56% 33 29.94 0.0
06 21:55 S 6 10.00 Partly Cloudy SCT070 SCT090 37.4 23 56% 33 29.95 0.0
06 21:35 SW 5 10.00 Overcast SCT070 OVC090 39.2 23 52% 36 29.95 0.0
06 21:15 SW 6 10.00 Overcast OVC080 39.2 24.8 56% 36 29.95 0.0
06 20:55 SW 5 10.00 Mostly Cloudy BKN080 39.2 24.8 56% 36 29.95 0.0
06 20:35 SW 5 10.00 Partly Cloudy SCT080 41 24.8 53% 38 29.95 0.0
06 20:15 SW 5 10.00 Partly Cloudy SCT080 42.8 24.8 49% 41 29.95 0.0
06 19:55 SW 6 10.00 Partly Cloudy SCT080 42.8 24.8 49% 40 29.96 0.0
06 19:35 W 6 10.00 Overcast OVC080 44.6 24.8 46% 42 29.96 0.0
06 19:15 W 6 10.00 Overcast OVC070 44.6 26.6 49% 42 29.96 0.0
06 18:55 W 3 10.00 Overcast OVC070 44.6 24.8 46% 29.97 0.0
06 18:35 W 5 10.00 Overcast OVC070 44.6 24.8 46% 43 29.97 0.0
06 18:15 NW 9 10.00 Overcast OVC070 44.6 24.8 46% 40 29.98 0.0
06 17:55 W 10 10.00 Overcast OVC060 44.6 26.6 49% 40 29.98 0.0
06 17:35 W 7 10.00 Overcast OVC060 44.6 26.6 49% 41 29.99 0.0
06 17:15 NW 7 10.00 Overcast OVC060 42.8 26.6 53% 39 29.99 0.0
06 16:55 W 8 10.00 Overcast OVC060 42.8 26.6 53% 39 29.99 0.0
06 16:35 NW 5 10.00 Overcast OVC060 42.8 26.6 53% 41 30 0.0
06 16:15 NW 9 10.00 Overcast OVC050 42.8 24.8 49% 38 30 0.0
06 15:55 W 9 10.00 Overcast OVC050 42.8 26.6 53% 38 30 0.0
06 15:35 NW 7 10.00 Overcast OVC060 42.8 26.6 53% 39 30 0.0
06 15:15 W 8 10.00 Overcast BKN050 OVC060 42.8 26.6 53% 39 30.01 0.0
06 14:55 NW 7 10.00 Overcast OVC050 42.8 26.6 53% 39 30.01 0.0
06 14:35 NW 9 10.00 Overcast OVC050 42.8 24.8 49% 38 30.02 0.0
06 14:15 NW 10 10.00 Overcast OVC050 42.8 24.8 49% 38 30.02 0.0
06 13:55 NW 13 10.00 Overcast OVC050 42.8 24.8 49% 37 30.02 0.0
06 13:35 NW 7 10.00 Overcast OVC050 42.8 24.8 49% 39 30.02 0.0
06 13:15 NW 9 10.00 Overcast BKN050 OVC055 42.8 24.8 49% 38 30.03 0.0
06 12:55 NW 8 10.00 Overcast OVC050 42.8 24.8 49% 39 30.03 0.0
06 12:35 W 9 10.00 Overcast OVC050 42.8 24.8 49% 38 30.03 0.0
06 12:15 W 9 10.00 Overcast BKN050 OVC055 42.8 24.8 49% 38 30.04 0.0
06 11:55 N 8 10.00 Overcast BKN055 OVC065 42.8 24.8 49% 39 30.04 0.0
06 11:35 NW 8 10.00 Overcast OVC049 42.8 24.8 49% 39 30.04 0.0
06 11:15 NW 6 G 18 10.00 Overcast OVC049 41 24.8 53% 38 30.05 0.0
06 10:55 NW 14 G 20 10.00 Overcast OVC049 39.2 24.8 56% 32 30.05 0.0
06 10:35 NW 10 G 16 10.00 Overcast OVC049 41 24.8 53% 35 30.05 0.0
06 10:15 NW 14 10.00 Overcast OVC049 39.2 24.8 56% 32 30.05 0.0
06 09:55 NW 12 G 17 10.00 Overcast BKN044 OVC050 39.2 24.8 56% 33 30.06 0.0
06 09:35 NW 10 10.00 Mostly Cloudy SCT042 BKN050 39.2 24.8 56% 33 30.06 0.0
06 09:15 NW 12 G 16 10.00 Overcast SCT039 OVC050 39.2 24.8 56% 33 30.06 0.0
06 08:55 NW 7 10.00 Overcast OVC050 37.4 24.8 60% 33 30.06 0.0
06 08:35 NW 9 10.00 Overcast OVC050 37.4 24.8 60% 31 30.06 0.0
06 08:15 W 6 10.00 Overcast OVC048 35.6 24.8 65% 31 30.05 0.0
06 07:55 NW 6 10.00 Overcast OVC046 35.6 24.8 65% 31 30.05 0.0
06 07:35 NW 6 10.00 Overcast OVC046 35.6 23 60% 31 30.05 0.0
06 07:15 NW 3 10.00 Overcast OVC046 35.6 23 60% 30.04 0.0
06 06:55 N 3 10.00 Overcast OVC044 35.6 21.2 56% 30.04 0.0
06 06:35 N 5 10.00 Overcast OVC044 35.6 21.2 56% 32 30.03 0.0
06 06:15 N 8 10.00 Overcast OVC044 35.6 21.2 56% 30 30.03 0.0
06 05:55 N 8 10.00 Overcast OVC044 35.6 23 60% 30 30.03 0.0
06 05:35 NW 8 10.00 Overcast OVC044 35.6 23 60% 30 30.02 0.0
06 05:15 NW 7 10.00 Overcast OVC044 33.8 23 65% 28 30.02 0.0
06 04:55 NW 6 10.00 Overcast OVC044 33.8 23 65% 29 30.02 0.0
06 04:35 N 5 10.00 Overcast OVC044 35.6 24.8 65% 32 30.02 0.0
06 04:15 N 5 10.00 Overcast OVC044 35.6 23 60% 32 30.02 0.0
06 03:55 NW 5 10.00 Overcast OVC044 35.6 23 60% 32 30.02 0.0
06 03:35 NW 6 10.00 Overcast OVC044 35.6 23 60% 31 30.01 0.0
06 03:15 N 3 10.00 Overcast OVC044 35.6 23 60% 30.01 0.0
06 02:55 N 5 10.00 Overcast OVC044 35.6 23 60% 32 30.01 0.0
06 02:35 N 5 10.00 Overcast OVC046 35.6 24.8 65% 32 30.01 0.0
06 02:15 N 6 10.00 Overcast OVC050 35.6 23 60% 31 30.01 0.0
06 01:55 N 6 10.00 Overcast BKN050 OVC055 35.6 24.8 65% 31 30.01 0.0
06 01:35 N 7 10.00 Overcast OVC050 35.6 24.8 65% 31 30.01 0.0
06 01:15 N 6 10.00 Overcast OVC050 35.6 24.8 65% 31 30.01 0.0
06 00:55 N 9 10.00 Overcast OVC050 35.6 24.8 65% 29 30.01 0.0
06 00:35 N 8 10.00 Overcast OVC050 35.6 24.8 65% 30 30.01 0.0
06 00:15 N 10 10.00 Overcast OVC050 35.6 24.8 65% 29 30 0.0
05 23:55 N 9 10.00 Overcast OVC050 37.4 24.8 60% 31 30 0.0
05 23:35 N 8 10.00 Overcast OVC050 37.4 24.8 60% 32 30 0.0
05 23:15 N 7 10.00 Overcast OVC050 37.4 24.8 60% 33 29.99 0.0
05 22:55 N 8 10.00 Overcast OVC050 37.4 24.8 60% 32 29.99 0.0
05 22:35 N 9 10.00 Overcast SCT048 OVC060 37.4 24.8 60% 31 29.99 0.0
05 22:15 N 7 10.00 Overcast SCT048 OVC060 37.4 24.8 60% 33 29.99 0.0
05 21:55 N 8 10.00 Overcast BKN048 OVC050 37.4 24.8 60% 32 29.98 0.0
05 21:15 N 10 10.00 Overcast OVC060 39.2 24.8 56% 33 29.97 0.0
05 20:55 N 10 10.00 Overcast OVC060 39.2 24.8 56% 33 29.96 0.0
05 20:35 N 12 10.00 Overcast OVC060 39.2 24.8 56% 33 29.96 0.0
05 20:15 N 13 10.00 Overcast OVC060 41 24.8 53% 34 29.95 0.0
05 19:55 N 14 10.00 Overcast OVC060 41 24.8 53% 34 29.95 0.0
05 19:35 NW 14 10.00 Overcast OVC060 42.8 24.8 49% 36 29.94 0.0
05 19:15 N 13 G 18 10.00 Overcast OVC060 42.8 24.8 49% 37 29.94 0.0
05 18:55 NW 14 10.00 Overcast OVC060 42.8 24.8 49% 36 29.94 0.0
05 18:35 N 16 10.00 Overcast OVC050 42.8 24.8 49% 36 29.94 0.0
05 18:15 NW 13 10.00 Overcast OVC050 42.8 24.8 49% 37 29.94 0.0
05 17:55 N 13 10.00 Overcast OVC050 42.8 24.8 49% 37 29.94 0.0
05 17:35 NW 14 10.00 Overcast OVC050 42.8 24.8 49% 36 29.93 0.0
05 17:15 NW 15 10.00 Overcast OVC050 44.6 24.8 46% 38 29.93 0.0
05 16:55 NW 13 10.00 Overcast OVC050 44.6 24.8 46% 39 29.93 0.0
05 16:35 NW 13 G 22 10.00 Overcast OVC050 42.8 24.8 49% 37 29.93 0.0
05 16:15 NW 15 G 22 10.00 Overcast OVC050 42.8 24.8 49% 36 29.93 0.0
05 15:55 N 14 G 23 10.00 Overcast OVC050 42.8 24.8 49% 36 29.93 0.0
05 15:35 N 16 G 23 10.00 Overcast OVC050 44.6 24.8 46% 38 29.92 0.0
05 15:15 N 16 G 23 10.00 Overcast BKN050 OVC055 44.6 24.8 46% 38 29.93 0.0
05 14:55 N 12 10.00 Overcast OVC050 42.8 24.8 49% 37 29.93 0.0
05 14:35 NW 14 10.00 Overcast OVC048 42.8 24.8 49% 36 29.93 0.0
05 14:15 NW 15 G 18 10.00 Overcast OVC048 41 24.8 53% 34 29.93 0.0
05 13:55 N 10 G 16 10.00 Overcast OVC046 39.2 24.8 56% 33 29.93 0.0
05 13:35 NW 9 G 21 10.00 Overcast OVC046 39.2 24.8 56% 34 29.93 0.0
05 13:15 N 13 G 16 10.00 Overcast OVC046 39.2 24.8 56% 32 29.93 0.0
05 12:55 NW 18 G 26 10.00 Overcast OVC048 39.2 24.8 56% 31 29.92 0.0
05 12:35 NW 21 G 26 10.00 Overcast and Breezy OVC048 41 24.8 53% 32 29.92 0.0
05 12:15 N 17 G 26 10.00 Mostly Cloudy BKN046 BKN100 41 24.8 53% 33 29.91 0.0
05 11:55 NW 21 G 25 10.00 Mostly Cloudy and Breezy SCT048 SCT060 BKN100 41 24.8 53% 32 29.91 0.0
05 11:35 NW 17 G 28 10.00 Partly Cloudy SCT047 SCT060 SCT100 41 24.8 53% 33 29.91 0.0
05 11:15 N 21 G 24 10.00 Partly Cloudy and Breezy SCT045 SCT100 41 24.8 53% 32 29.9 0.0
05 10:55 N 18 G 25 10.00 Mostly Cloudy SCT041 BKN100 39.2 24.8 56% 31 29.9 0.0
05 10:35 NW 18 G 23 10.00 Partly Cloudy SCT100 39.2 24.8 56% 31 29.89 0.0
05 10:15 N 17 G 21 10.00 Partly Cloudy SCT036 SCT041 SCT100 39.2 26.6 61% 31 29.89 0.0
05 09:55 N 14 G 17 10.00 Partly Cloudy SCT036 37.4 26.6 65% 30 29.88 0.0
05 09:35 N 15 G 20 10.00 Fair CLR 37.4 26.6 65% 29 29.88 0.0
05 09:15 N 14 G 18 10.00 Partly Cloudy SCT110 37.4 26.6 65% 30 29.88 0.0
05 08:55 N 12 10.00 Mostly Cloudy SCT060 BKN110 35.6 24.8 65% 28 29.87 0.0
05 08:35 N 10 10.00 Mostly Cloudy BKN060 BKN065 35.6 24.8 65% 29 29.87 0.0
05 08:15 N 9 10.00 Mostly Cloudy BKN060 BKN070 BKN110 33.8 24.8 70% 27 29.86 0.0
05 07:55 NE 10 10.00 Partly Cloudy SCT060 33.8 24.8 70% 26 29.86 0.0
05 07:35 N 5 10.00 Fair CLR 33.8 26.6 75% 30 29.85 0.0
05 07:15 N 3 10.00 Mostly Cloudy SCT030 BKN035 32 26.6 80% 29.84 0.0
05 06:55 Calm 10.00 Partly Cloudy SCT032 SCT060 30.2 26.6 86% 29.84 0.0
05 06:35 Calm 10.00 Partly Cloudy SCT060 30.2 26.6 86% 29.84 0.0
05 06:15 Calm 10.00 Partly Cloudy SCT060 30.2 26.6 86% 29.83 0.0
05 05:55 Calm 10.00 Partly Cloudy SCT060 SCT095 30.2 26.6 86% 29.83 0.0
05 05:35 Calm 10.00 Mostly Cloudy BKN085 30.2 26.6 86% 29.83 0.0
05 05:15 Calm 10.00 Overcast OVC085 30.2 26.6 86% 29.83 0.0
05 04:55 Calm 10.00 Overcast OVC085 30.2 26.6 86% 29.83 0.0
05 04:35 Calm 10.00 Overcast OVC085 30.2 26.6 86% 29.83 0.0
05 04:15 Calm 10.00 Overcast OVC085 30.2 24.8 80% 29.82 0.0
05 03:55 Calm 10.00 Overcast OVC085 30.2 24.8 80% 29.82 0.0
05 03:35 Calm 10.00 Overcast OVC085 28.4 24.8 86% 29.82 0.0
05 03:15 W 3 10.00 Overcast OVC085 30.2 24.8 80% 29.82 0.0
05 02:55 Calm 10.00 Partly Cloudy SCT065 SCT085 28.4 23 80% 29.82 0.0
05 02:35 Calm 10.00 Fair CLR 28.4 23 80% 29.81 0.0
05 02:15 Calm 10.00 Fair CLR 30.2 24.8 80% 29.81 0.0
05 01:55 Calm 10.00 Fair CLR 28.4 23 80% 29.81 0.0
05 01:35 N 5 10.00 Fair CLR 28.4 23 80% 24 29.81 0.0
05 01:15 N 5 10.00 Fair CLR 30.2 24.8 80% 26 29.81 0.0
05 00:55 N 5 10.00 Fair CLR 30.2 24.8 80% 26 29.81 0.0
05 00:35 N 7 10.00 Partly Cloudy SCT095 33.8 26.6 75% 28 29.81 0.0
05 00:15 N 7 10.00 Overcast OVC095 35.6 26.6 70% 31 29.8 0.0
04 23:55 N 7 10.00 Overcast SCT070 OVC095 35.6 28.4 75% 31 29.8 0.0
04 23:35 N 8 10.00 Overcast SCT070 OVC095 37.4 28.4 70% 32 29.8 0.0
04 23:15 N 10 10.00 Overcast OVC095 37.4 30.2 75% 31 29.79 0.0
04 22:55 N 10 10.00 Overcast SCT070 OVC095 39.2 28.4 65% 33 29.79 0.0
04 22:35 N 8 10.00 Overcast OVC085 39.2 28.4 65% 34 29.78 0.0
04 22:15 N 10 10.00 Overcast OVC085 39.2 28.4 65% 33 29.78 0.0
04 21:55 N 10 10.00 Overcast OVC085 41 28.4 61% 35 29.77 0.0
04 21:35 N 10 10.00 Overcast OVC085 41 28.4 61% 35 29.77 0.0
04 21:15 N 14 10.00 Overcast OVC085 41 30.2 66% 34 29.75 0.0
04 20:55 N 15 10.00 Overcast OVC085 42.8 30.2 61% 36 29.75 0.0
04 20:35 N 14 10.00 Overcast OVC085 42.8 30.2 61% 36 29.74 0.0
04 20:15 N 14 10.00 Overcast OVC085 44.6 28.4 53% 39 29.73 0.0
04 19:55 N 15 10.00 Overcast OVC085 44.6 30.2 57% 38 29.73 0.0
04 19:35 N 17 G 24 10.00 Overcast OVC085 44.6 30.2 57% 38 29.72 0.0
04 19:15 NW 23 G 28 10.00 Overcast and Breezy OVC075 46.4 26.6 46% 39 29.71 0.0
04 18:55 NW 22 G 26 10.00 Overcast and Breezy OVC075 46.4 26.6 46% 39 29.71 0.0
04 18:35 NW 20 G 28 10.00 Overcast OVC075 46.4 26.6 46% 40 29.7 0.0
04 18:15 NW 28 G 35 10.00 Overcast and Windy OVC075 48.2 26.6 43% 41 29.7 0.0
04 17:55 NW 23 G 28 10.00 Overcast and Breezy OVC065 48.2 26.6 43% 41 29.7 0.0
04 17:35 NW 29 G 36 10.00 Mostly Cloudy and Windy BKN065 48.2 26.6 43% 40 29.69 0.0
04 17:15 NW 26 G 33 10.00 Mostly Cloudy and Windy BKN065 BKN075 48.2 28.4 46% 41 29.68 0.0
04 16:55 NW 22 G 36 10.00 Overcast and Breezy SCT060 OVC075 48.2 28.4 46% 41 29.68 0.0
04 16:35 NW 21 10.00 Mostly Cloudy and Breezy SCT060 BKN070 48.2 28.4 46% 42 29.68 0.0
04 16:15 NW 26 10.00 Mostly Cloudy and Windy SCT060 BKN080 48.2 30.2 50% 41 29.68 0.0
04 15:55 NW 28 G 33 10.00 Mostly Cloudy and Windy BKN060 BKN080 50 30.2 47% 43 29.67 0.0
04 15:35 NW 28 G 32 10.00 Mostly Cloudy and Windy BKN060 BKN080 48.2 28.4 46% 41 29.67 0.0
04 15:15 NW 23 G 30 10.00 Overcast and Breezy BKN070 OVC075 48.2 26.6 43% 41 29.67 0.0
04 14:55 NW 20 G 26 10.00 Overcast SCT060 OVC070 48.2 28.4 46% 42 29.67 0.0
04 14:35 NW 23 10.00 Overcast and Breezy OVC060 46.4 28.4 50% 39 29.68 0.0
04 14:15 NW 20 G 30 10.00 Overcast OVC060 46.4 28.4 50% 40 29.68 0.0
04 13:55 NW 22 G 30 10.00 Overcast and Breezy OVC050 46.4 28.4 50% 39 29.67 0.0
04 13:35 NW 25 G 35 10.00 Overcast and Breezy BKN050 OVC055 46.4 28.4 50% 38 29.66 0.0
04 13:15 NW 24 G 31 10.00 Overcast and Breezy OVC050 46.4 28.4 50% 39 29.66 0.0
04 12:55 NW 26 G 36 10.00 Overcast and Windy SCT050 OVC055 46.4 30.2 53% 38 29.65 0.0
04 12:35 NW 31 G 35 10.00 Overcast and Windy OVC050 46.4 28.4 50% 38 29.64 0.0
04 12:15 NW 23 10.00 Overcast and Breezy BKN048 OVC050 46.4 30.2 53% 39 29.64 0.0
04 11:55 NW 25 G 31 10.00 Overcast and Breezy OVC050 46.4 30.2 53% 38 29.64 0.0
Date Time (cdt) Wind (mph) Vis. (mi.) Weather Sky Cond. Air Dwpt Max. Min. Relative Humidity Wind Chill (°F) Heat Index (°F) altimeter (in) sea level (mb) 1 hr 3 hr 6 hr
6 hour
Temperature (ºF) Pressure Precipitation (in)